APL Norway — A8NC4 — position and weather

sailwx.info

Track history (hours):
 
Tides and Currents Weather Stations Pressure Air Temp Water Temp Dewpoint Dewpoint Depression Visibility Wind Speed Wind Dir Waves Ship Positions

APL Norway

Last reported at 2014-Sep-14 14:33 UTC. Time now 2014-Sep-17 21:39 UTC.
Position N 20°31' W 105°39'.

Length 295 m; draft 11.8 m.

Type: Cargo ship. MMSI: 636013456.

Date/timePositionNaut miles runAvg speedWind from/ knotsBaromVisibWave heightAir tempDewpointWater temp
2014-Sep-14 14:33N 20°31' W 105°39'7 7.2
2014-Sep-14 13:31N 20°33' W 105°31'1 1.0
2014-Sep-14 12:31N 20°33' W 105°32'1 1.0
2014-Sep-14 11:31N 20°34' W 105°33'4 4.4
2014-Sep-14 10:32N 20°38' W 105°35'1 0.8
2014-Sep-14 09:32N 20°37' W 105°35'1 0.8
2014-Sep-14 08:23N 20°36' W 105°35'1 1.4
2014-Sep-14 07:32N 20°36' W 105°36'2 1.5
2014-Sep-14 06:32N 20°35' W 105°37'1 0.9
2014-Sep-14 05:32N 20°35' W 105°38'1 0.8
2014-Sep-14 04:32N 20°35' W 105°39'1 0.9
2014-Sep-14 03:26N 20°35' W 105°40'1 1.1
2014-Sep-14 02:32N 20°34' W 105°41'1 1.1
2014-Sep-14 01:23N 20°34' W 105°43'  
2014-Sep-11 05:32N 28°17' W 118°25'1717.3
2014-Sep-11 04:33N 28°28' W 118°40'1818.0
2014-Sep-11 03:33N 28°39' W 118°57'1817.6
2014-Sep-11 02:31N 28°50' W 119°13'1717.6
2014-Sep-11 01:33N 28°60' W 119°29'1817.9
2014-Sep-11 00:33N 29°11' W 119°45'1817.8
2014-Sep-10 23:33N 29°21' W 120°01'1817.8
2014-Sep-10 22:33N 29°32' W 120°18'1818.0
2014-Sep-10 21:33N 29°42' W 120°35'1818.0
2014-Sep-10 20:34N 29°53' W 120°51'1817.8
2014-Sep-10 19:33N 30°04' W 121°07'1817.8
2014-Sep-10 18:33N 30°15' W 121°24'1818.0
2014-Sep-10 17:33N 30°25' W 121°41'1817.7
2014-Sep-10 16:33N 30°37' W 121°56'1313.0
2014-Sep-10 15:33N 30°47' W 122°06'1212.0
2014-Sep-10 14:33N 30°57' W 122°13'1413.6
2014-Sep-10 13:33N 31°06' W 122°25'1313.3
2014-Sep-10 12:33N 31°15' W 122°36'1413.6
2014-Sep-10 11:33N 31°24' W 122°49'1413.8
2014-Sep-10 10:34N 31°33' W 123°01'1514.5
2014-Sep-10 09:34N 31°42' W 123°14'3014.4
2014-Sep-10 07:27N 32°02' W 123°40'2913.9
2014-Sep-10 05:22N 32°22' W 124°06'1012.7
2014-Sep-10 04:33N 32°30' W 124°13'1312.7
2014-Sep-10 03:33N 32°40' W 124°23'1312.7
2014-Sep-10 02:33N 32°50' W 124°32'1918.6
2014-Sep-10 01:33N 33°06' W 124°44'3113.6
2014-Sep-09 23:17N 33°32' W 125°04'2313.0
2014-Sep-09 21:32N 33°51' W 125°19'1312.9
2014-Sep-09 20:33N 34°01' W 125°27'1413.0
2014-Sep-09 19:27N 34°13' W 125°37'1712.8
2014-Sep-09 18:09N 34°27' W 125°47'712.5
2014-Sep-09 17:33N 34°34' W 125°52'1312.4
2014-Sep-09 16:30N 34°45' W 126°01'1412.3
2014-Sep-09 15:20N 34°57' W 126°10'1012.2
2014-Sep-09 14:32N 35°05' W 126°17'1212.3
2014-Sep-09 13:33N 35°15' W 126°25'1212.4
2014-Sep-09 12:33N 35°26' W 126°33'2612.5
2014-Sep-09 10:31N 35°47' W 126°50'13512.3
2014-Sep-08 23:33N 37°51' W 127°56'8817.0
2014-Sep-08 18:22N 38°43' W 129°27'3517.8
2014-Sep-08 16:23N 39°02' W 130°05'  
Track history (hours):
 
Tides and Currents Weather Stations Pressure Air Temp Water Temp Dewpoint Dewpoint Depression Visibility Wind Speed Wind Dir Waves Ship Positions

APL Norway

Last reported at 2014-Sep-14 14:33 UTC. Time now 2014-Sep-17 21:39 UTC.
Position N 20°31' W 105°39'.

Length 295 m; draft 11.8 m.

Type: Cargo ship. MMSI: 636013456.

Date/timePositionNaut miles runAvg speedWind from/ knotsBaromVisibWave heightAir tempDewpointWater temp
2014-Sep-14 14:33N 20°31' W 105°39'7 7.2
2014-Sep-14 13:31N 20°33' W 105°31'1 1.0
2014-Sep-14 12:31N 20°33' W 105°32'1 1.0
2014-Sep-14 11:31N 20°34' W 105°33'4 4.4
2014-Sep-14 10:32N 20°38' W 105°35'1 0.8
2014-Sep-14 09:32N 20°37' W 105°35'1 0.8
2014-Sep-14 08:23N 20°36' W 105°35'1 1.4
2014-Sep-14 07:32N 20°36' W 105°36'2 1.5
2014-Sep-14 06:32N 20°35' W 105°37'1 0.9
2014-Sep-14 05:32N 20°35' W 105°38'1 0.8
2014-Sep-14 04:32N 20°35' W 105°39'1 0.9
2014-Sep-14 03:26N 20°35' W 105°40'1 1.1
2014-Sep-14 02:32N 20°34' W 105°41'1 1.1
2014-Sep-14 01:23N 20°34' W 105°43'  
2014-Sep-11 05:32N 28°17' W 118°25'1717.3
2014-Sep-11 04:33N 28°28' W 118°40'1818.0
2014-Sep-11 03:33N 28°39' W 118°57'1817.6
2014-Sep-11 02:31N 28°50' W 119°13'1717.6
2014-Sep-11 01:33N 28°60' W 119°29'1817.9
2014-Sep-11 00:33N 29°11' W 119°45'1817.8
2014-Sep-10 23:33N 29°21' W 120°01'1817.8
2014-Sep-10 22:33N 29°32' W 120°18'1818.0
2014-Sep-10 21:33N 29°42' W 120°35'1818.0
2014-Sep-10 20:34N 29°53' W 120°51'1817.8
2014-Sep-10 19:33N 30°04' W 121°07'1817.8
2014-Sep-10 18:33N 30°15' W 121°24'1818.0
2014-Sep-10 17:33N 30°25' W 121°41'1817.7
2014-Sep-10 16:33N 30°37' W 121°56'1313.0
2014-Sep-10 15:33N 30°47' W 122°06'1212.0
2014-Sep-10 14:33N 30°57' W 122°13'1413.6
2014-Sep-10 13:33N 31°06' W 122°25'1313.3
2014-Sep-10 12:33N 31°15' W 122°36'1413.6
2014-Sep-10 11:33N 31°24' W 122°49'1413.8
2014-Sep-10 10:34N 31°33' W 123°01'1514.5
2014-Sep-10 09:34N 31°42' W 123°14'3014.4
2014-Sep-10 07:27N 32°02' W 123°40'2913.9
2014-Sep-10 05:22N 32°22' W 124°06'1012.7
2014-Sep-10 04:33N 32°30' W 124°13'1312.7
2014-Sep-10 03:33N 32°40' W 124°23'1312.7
2014-Sep-10 02:33N 32°50' W 124°32'1918.6
2014-Sep-10 01:33N 33°06' W 124°44'3113.6
2014-Sep-09 23:17N 33°32' W 125°04'2313.0
2014-Sep-09 21:32N 33°51' W 125°19'1312.9
2014-Sep-09 20:33N 34°01' W 125°27'1413.0
2014-Sep-09 19:27N 34°13' W 125°37'1712.8
2014-Sep-09 18:09N 34°27' W 125°47'712.5
2014-Sep-09 17:33N 34°34' W 125°52'1312.4
2014-Sep-09 16:30N 34°45' W 126°01'1412.3
2014-Sep-09 15:20N 34°57' W 126°10'1012.2
2014-Sep-09 14:32N 35°05' W 126°17'1212.3
2014-Sep-09 13:33N 35°15' W 126°25'1212.4
2014-Sep-09 12:33N 35°26' W 126°33'2612.5
2014-Sep-09 10:31N 35°47' W 126°50'13512.3
2014-Sep-08 23:33N 37°51' W 127°56'8817.0
2014-Sep-08 18:22N 38°43' W 129°27'3517.8
2014-Sep-08 16:23N 39°02' W 130°05'  

Dump ship's entire track history